메인 페이지
METAR-TAF:

METAR-TAF

공항 :

요한 바오로 2세 공항

Ponta Delgada, 아조레스, 포르투갈

위도: 37-44N, 경도: 025-42W, 고도: 71m

현재 날씨관측

예보는 10분 전, 00:30시(UTC)에 발표되었습니다.
북동20kt, 순간 최대 풍속 38kt풍과 동북동풍을 오가는
온도 15°C
습도 88%
기압 1017 hPa
시정 10km 이상
고도 1400ft 상공 구름 보통
고도 1800ft 상공 구름 조금, 타워링 적운.
고도 2000ft 상공 구름 보통
약한소나기

METAR: LPPD 020030Z 05020G38KT 010V070 9999 -SHRA SCT014 FEW018TCU SCT020 15/13 Q1017

시각: 23:40 (00:40 UTC)

예보

예보는 1 시간 40분 전, 23:00시(UTC)에 발표되었습니다.
예보 대상 시간: 02일 00시부터 02일 24시까지 (UTC)
북북동25kt, 순간 최대 풍속 38kt
시정 10km 이상
고도 1500ft 상공 구름 보통
고도 2000ft 상공 구름 조금, 타워링 적운.
일시적
02일 00시부터 02일 24시까지 (UTC)
북북동20kt
시정: 5000m
고도 800ft 상공 구름 보통
고도 1300ft 상공 구름 많음
고도 1800ft 상공 구름 조금, 적란운.
소나기
확률 30% :
일시적
02일 06시부터 02일 15시까지 (UTC)
북북동32kt, 순간 최대 풍속 43kt

TAF: LPPD 012300Z 0200/0224 03025G38KT 9999 SCT015 FEW020TCU TEMPO 0200/0224 03020KT 5000 SHRA SCT008 BKN013 FEW018CB PROB30 TEMPO 0206/0215 02032G43KT

4,000개 이상의 공항 관측 자료 및 예보 (METAR 및 TAF 보고).

지도상에서 검색 가능한 기상관측소가 노란 점과 빨간 점으로 표시되어 있습니다.

기상관측소 명을 보려면 표시 위로 마우스를 이동하세요.

날씨 관측과 예보를 보려면 클릭하세요.

지도 변경 : 확대하려면 엑스 표시가 있는 녹색 버튼, 축소하려면 빼기 표시가 있는 녹색 버튼, 다음 페이지의 지도를 보려면 녹색 화살표를 클릭하세요.


METAR-TAF: